sensor_id;sensor_type;location;lat;lon;timestamp;P1;durP1;ratioP1;P2;durP2;ratioP2
27746;SDS011;15138;51.012;4.692;2023-02-15T00:00:44;62.78;;;29.73;;
27746;SDS011;15138;51.012;4.692;2023-02-15T00:03:15;55.83;;;27.88;;
27746;SDS011;15138;51.012;4.692;2023-02-15T00:05:46;51.22;;;24.35;;
27746;SDS011;15138;51.012;4.692;2023-02-15T00:08:16;54.55;;;26.23;;
27746;SDS011;15138;51.012;4.692;2023-02-15T00:10:45;47.60;;;25.45;;
27746;SDS011;15138;51.012;4.692;2023-02-15T00:13:15;43.75;;;21.48;;
27746;SDS011;15138;51.012;4.692;2023-02-15T00:15:43;50.50;;;24.95;;
27746;SDS011;15138;51.012;4.692;2023-02-15T00:18:11;51.10;;;24.38;;
27746;SDS011;15138;51.012;4.692;2023-02-15T00:20:39;55.35;;;25.92;;
27746;SDS011;15138;51.012;4.692;2023-02-15T00:23:09;45.58;;;25.58;;
27746;SDS011;15138;51.012;4.692;2023-02-15T00:25:37;52.53;;;25.90;;
27746;SDS011;15138;51.012;4.692;2023-02-15T00:28:06;47.17;;;23.80;;
27746;SDS011;15138;51.012;4.692;2023-02-15T00:30:34;43.03;;;22.92;;
27746;SDS011;15138;51.012;4.692;2023-02-15T00:33:02;47.22;;;24.35;;
27746;SDS011;15138;51.012;4.692;2023-02-15T00:35:31;44.47;;;25.30;;
27746;SDS011;15138;51.012;4.692;2023-02-15T00:37:59;52.08;;;27.13;;
27746;SDS011;15138;51.012;4.692;2023-02-15T00:40:29;52.05;;;27.10;;
27746;SDS011;15138;51.012;4.692;2023-02-15T00:42:57;55.80;;;26.23;;
27746;SDS011;15138;51.012;4.692;2023-02-15T00:45:26;53.95;;;29.58;;
27746;SDS011;15138;51.012;4.692;2023-02-15T00:47:54;58.38;;;27.67;;
27746;SDS011;15138;51.012;4.692;2023-02-15T00:50:22;53.28;;;27.33;;
27746;SDS011;15138;51.012;4.692;2023-02-15T00:52:52;44.92;;;23.38;;
27746;SDS011;15138;51.012;4.692;2023-02-15T00:55:20;48.83;;;24.85;;
27746;SDS011;15138;51.012;4.692;2023-02-15T00:57:50;52.92;;;27.83;;
27746;SDS011;15138;51.012;4.692;2023-02-15T01:00:18;48.20;;;24.50;;
27746;SDS011;15138;51.012;4.692;2023-02-15T01:02:47;51.05;;;26.83;;
27746;SDS011;15138;51.012;4.692;2023-02-15T01:05:15;49.85;;;26.30;;
27746;SDS011;15138;51.012;4.692;2023-02-15T01:07:44;58.90;;;28.48;;
27746;SDS011;15138;51.012;4.692;2023-02-15T01:10:12;56.80;;;27.85;;
27746;SDS011;15138;51.012;4.692;2023-02-15T01:12:40;71.57;;;38.17;;
27746;SDS011;15138;51.012;4.692;2023-02-15T01:15:10;72.65;;;37.05;;
27746;SDS011;15138;51.012;4.692;2023-02-15T01:17:39;73.18;;;35.28;;
27746;SDS011;15138;51.012;4.692;2023-02-15T01:20:07;58.40;;;29.77;;
27746;SDS011;15138;51.012;4.692;2023-02-15T01:22:36;54.70;;;29.45;;
27746;SDS011;15138;51.012;4.692;2023-02-15T01:25:06;54.85;;;29.13;;
27746;SDS011;15138;51.012;4.692;2023-02-15T01:27:34;59.85;;;30.70;;
27746;SDS011;15138;51.012;4.692;2023-02-15T01:30:03;62.60;;;31.23;;
27746;SDS011;15138;51.012;4.692;2023-02-15T01:32:33;53.20;;;28.10;;
27746;SDS011;15138;51.012;4.692;2023-02-15T01:35:01;56.17;;;27.52;;
27746;SDS011;15138;51.012;4.692;2023-02-15T01:37:30;50.58;;;26.48;;
27746;SDS011;15138;51.012;4.692;2023-02-15T01:39:58;61.70;;;30.80;;
27746;SDS011;15138;51.012;4.692;2023-02-15T01:42:27;46.20;;;24.80;;
27746;SDS011;15138;51.012;4.692;2023-02-15T01:44:57;59.10;;;29.05;;
27746;SDS011;15138;51.012;4.692;2023-02-15T01:47:27;61.67;;;30.48;;
27746;SDS011;15138;51.012;4.692;2023-02-15T01:50:03;51.08;;;27.83;;
27746;SDS011;15138;51.012;4.692;2023-02-15T01:52:37;61.95;;;29.52;;
27746;SDS011;15138;51.012;4.692;2023-02-15T01:55:10;44.35;;;24.88;;
27746;SDS011;15138;51.012;4.692;2023-02-15T01:57:40;52.00;;;28.00;;
27746;SDS011;15138;51.012;4.692;2023-02-15T02:00:10;65.38;;;35.55;;
27746;SDS011;15138;51.012;4.692;2023-02-15T02:02:40;52.42;;;28.88;;
27746;SDS011;15138;51.012;4.692;2023-02-15T02:05:12;52.90;;;27.05;;
27746;SDS011;15138;51.012;4.692;2023-02-15T02:07:41;52.53;;;28.25;;
27746;SDS011;15138;51.012;4.692;2023-02-15T02:10:13;58.88;;;32.50;;
27746;SDS011;15138;51.012;4.692;2023-02-15T02:12:44;48.45;;;26.90;;
27746;SDS011;15138;51.012;4.692;2023-02-15T02:15:15;37.55;;;21.27;;
27746;SDS011;15138;51.012;4.692;2023-02-15T02:17:47;46.15;;;24.55;;
27746;SDS011;15138;51.012;4.692;2023-02-15T02:20:51;49.75;;;28.30;;
27746;SDS011;15138;51.012;4.692;2023-02-15T02:23:44;42.85;;;23.02;;
27746;SDS011;15138;51.012;4.692;2023-02-15T02:26:30;54.83;;;26.98;;
27746;SDS011;15138;51.012;4.692;2023-02-15T02:29:43;51.20;;;27.05;;
27746;SDS011;15138;51.012;4.692;2023-02-15T02:35:54;53.67;;;27.75;;
27746;SDS011;15138;51.012;4.692;2023-02-15T02:38:32;43.85;;;23.67;;
27746;SDS011;15138;51.012;4.692;2023-02-15T02:41:12;54.35;;;29.45;;
27746;SDS011;15138;51.012;4.692;2023-02-15T02:43:47;53.47;;;28.85;;
27746;SDS011;15138;51.012;4.692;2023-02-15T02:46:24;58.30;;;30.92;;
27746;SDS011;15138;51.012;4.692;2023-02-15T02:48:58;61.28;;;32.15;;
27746;SDS011;15138;51.012;4.692;2023-02-15T02:51:26;51.58;;;27.83;;
27746;SDS011;15138;51.012;4.692;2023-02-15T02:53:55;51.90;;;28.27;;
27746;SDS011;15138;51.012;4.692;2023-02-15T02:56:27;54.60;;;29.02;;
27746;SDS011;15138;51.012;4.692;2023-02-15T02:58:59;37.90;;;21.58;;
27746;SDS011;15138;51.012;4.692;2023-02-15T03:01:31;51.85;;;26.95;;
27746;SDS011;15138;51.012;4.692;2023-02-15T03:04:06;50.42;;;27.85;;
27746;SDS011;15138;51.012;4.692;2023-02-15T03:06:39;47.00;;;25.38;;
27746;SDS011;15138;51.012;4.692;2023-02-15T03:09:10;51.75;;;28.55;;
27746;SDS011;15138;51.012;4.692;2023-02-15T03:11:43;47.70;;;26.85;;
27746;SDS011;15138;51.012;4.692;2023-02-15T03:14:12;49.03;;;25.35;;
27746;SDS011;15138;51.012;4.692;2023-02-15T03:16:42;39.85;;;22.75;;
27746;SDS011;15138;51.012;4.692;2023-02-15T03:19:16;51.13;;;27.75;;
27746;SDS011;15138;51.012;4.692;2023-02-15T03:21:50;41.45;;;24.90;;
27746;SDS011;15138;51.012;4.692;2023-02-15T03:24:31;54.80;;;29.13;;
27746;SDS011;15138;51.012;4.692;2023-02-15T03:27:02;52.70;;;28.65;;
27746;SDS011;15138;51.012;4.692;2023-02-15T03:29:34;54.90;;;28.35;;
27746;SDS011;15138;51.012;4.692;2023-02-15T03:32:04;55.40;;;28.80;;
27746;SDS011;15138;51.012;4.692;2023-02-15T03:34:36;53.75;;;28.98;;
27746;SDS011;15138;51.012;4.692;2023-02-15T03:37:07;54.45;;;28.52;;
27746;SDS011;15138;51.012;4.692;2023-02-15T03:39:42;64.63;;;34.15;;
27746;SDS011;15138;51.012;4.692;2023-02-15T03:42:17;42.50;;;24.67;;
27746;SDS011;15138;51.012;4.692;2023-02-15T03:44:54;43.67;;;24.02;;
27746;SDS011;15138;51.012;4.692;2023-02-15T03:47:27;58.05;;;30.70;;
27746;SDS011;15138;51.012;4.692;2023-02-15T03:50:00;59.63;;;33.35;;
27746;SDS011;15138;51.012;4.692;2023-02-15T03:52:51;58.50;;;30.90;;
27746;SDS011;15138;51.012;4.692;2023-02-15T03:55:22;49.38;;;26.83;;
27746;SDS011;15138;51.012;4.692;2023-02-15T03:57:51;47.35;;;26.77;;
27746;SDS011;15138;51.012;4.692;2023-02-15T04:00:38;44.45;;;24.00;;
27746;SDS011;15138;51.012;4.692;2023-02-15T04:03:30;40.78;;;24.38;;
27746;SDS011;15138;51.012;4.692;2023-02-15T04:06:06;43.67;;;26.33;;
27746;SDS011;15138;51.012;4.692;2023-02-15T04:08:34;45.45;;;25.58;;
27746;SDS011;15138;51.012;4.692;2023-02-15T04:11:20;48.22;;;28.10;;
27746;SDS011;15138;51.012;4.692;2023-02-15T04:13:48;48.75;;;25.70;;
27746;SDS011;15138;51.012;4.692;2023-02-15T04:16:22;47.25;;;25.25;;
27746;SDS011;15138;51.012;4.692;2023-02-15T04:18:50;47.55;;;25.05;;
27746;SDS011;15138;51.012;4.692;2023-02-15T04:21:38;42.83;;;25.17;;
27746;SDS011;15138;51.012;4.692;2023-02-15T04:24:24;45.85;;;26.80;;
27746;SDS011;15138;51.012;4.692;2023-02-15T04:27:09;50.78;;;28.00;;
27746;SDS011;15138;51.012;4.692;2023-02-15T04:29:37;54.72;;;30.85;;
27746;SDS011;15138;51.012;4.692;2023-02-15T04:32:06;57.97;;;32.28;;
27746;SDS011;15138;51.012;4.692;2023-02-15T04:34:34;62.67;;;30.23;;
27746;SDS011;15138;51.012;4.692;2023-02-15T04:37:03;43.50;;;24.88;;
27746;SDS011;15138;51.012;4.692;2023-02-15T04:39:32;63.28;;;32.20;;
27746;SDS011;15138;51.012;4.692;2023-02-15T04:42:00;52.50;;;28.73;;
27746;SDS011;15138;51.012;4.692;2023-02-15T04:44:28;55.72;;;30.20;;
27746;SDS011;15138;51.012;4.692;2023-02-15T04:46:56;41.63;;;23.50;;
27746;SDS011;15138;51.012;4.692;2023-02-15T04:49:24;44.88;;;24.40;;
27746;SDS011;15138;51.012;4.692;2023-02-15T04:51:53;44.33;;;25.67;;
27746;SDS011;15138;51.012;4.692;2023-02-15T04:54:23;44.90;;;24.70;;
27746;SDS011;15138;51.012;4.692;2023-02-15T04:56:51;46.88;;;25.27;;
27746;SDS011;15138;51.012;4.692;2023-02-15T04:59:19;41.20;;;22.42;;
27746;SDS011;15138;51.012;4.692;2023-02-15T05:01:48;40.80;;;22.42;;
27746;SDS011;15138;51.012;4.692;2023-02-15T05:04:16;47.78;;;27.05;;
27746;SDS011;15138;51.012;4.692;2023-02-15T05:06:44;46.65;;;25.45;;
27746;SDS011;15138;51.012;4.692;2023-02-15T05:09:13;41.17;;;22.23;;
27746;SDS011;15138;51.012;4.692;2023-02-15T05:11:43;37.78;;;21.08;;
27746;SDS011;15138;51.012;4.692;2023-02-15T05:14:11;42.35;;;22.52;;
27746;SDS011;15138;51.012;4.692;2023-02-15T05:16:39;47.65;;;25.67;;
27746;SDS011;15138;51.012;4.692;2023-02-15T05:19:08;50.42;;;27.90;;
27746;SDS011;15138;51.012;4.692;2023-02-15T05:21:36;45.45;;;26.95;;
27746;SDS011;15138;51.012;4.692;2023-02-15T05:24:04;42.47;;;22.75;;
27746;SDS011;15138;51.012;4.692;2023-02-15T05:26:55;45.38;;;26.35;;
27746;SDS011;15138;51.012;4.692;2023-02-15T05:29:41;43.25;;;22.83;;
27746;SDS011;15138;51.012;4.692;2023-02-15T05:32:09;41.83;;;23.15;;
27746;SDS011;15138;51.012;4.692;2023-02-15T05:34:40;51.38;;;24.75;;
27746;SDS011;15138;51.012;4.692;2023-02-15T05:37:08;44.38;;;23.88;;
27746;SDS011;15138;51.012;4.692;2023-02-15T05:39:37;42.88;;;23.70;;
27746;SDS011;15138;51.012;4.692;2023-02-15T05:42:07;45.72;;;23.40;;
27746;SDS011;15138;51.012;4.692;2023-02-15T05:44:35;45.85;;;25.40;;
27746;SDS011;15138;51.012;4.692;2023-02-15T05:47:03;42.75;;;23.35;;
27746;SDS011;15138;51.012;4.692;2023-02-15T05:49:33;43.47;;;22.40;;
27746;SDS011;15138;51.012;4.692;2023-02-15T05:52:02;41.80;;;22.70;;
27746;SDS011;15138;51.012;4.692;2023-02-15T05:54:30;44.35;;;24.58;;
27746;SDS011;15138;51.012;4.692;2023-02-15T05:56:59;42.70;;;23.08;;
27746;SDS011;15138;51.012;4.692;2023-02-15T05:59:29;34.95;;;20.27;;
27746;SDS011;15138;51.012;4.692;2023-02-15T06:01:57;43.75;;;24.65;;
27746;SDS011;15138;51.012;4.692;2023-02-15T06:04:26;45.50;;;24.92;;
27746;SDS011;15138;51.012;4.692;2023-02-15T06:06:54;50.70;;;26.83;;
27746;SDS011;15138;51.012;4.692;2023-02-15T06:09:22;43.95;;;24.13;;
27746;SDS011;15138;51.012;4.692;2023-02-15T06:11:51;53.20;;;27.08;;
27746;SDS011;15138;51.012;4.692;2023-02-15T06:14:19;63.63;;;31.23;;
27746;SDS011;15138;51.012;4.692;2023-02-15T06:16:49;50.58;;;24.73;;
27746;SDS011;15138;51.012;4.692;2023-02-15T06:19:17;54.92;;;29.83;;
27746;SDS011;15138;51.012;4.692;2023-02-15T06:21:47;44.83;;;23.45;;
27746;SDS011;15138;51.012;4.692;2023-02-15T06:24:16;58.50;;;31.00;;
27746;SDS011;15138;51.012;4.692;2023-02-15T06:26:44;56.15;;;29.02;;
27746;SDS011;15138;51.012;4.692;2023-02-15T06:29:12;41.05;;;22.08;;
27746;SDS011;15138;51.012;4.692;2023-02-15T06:31:40;39.53;;;21.13;;
27746;SDS011;15138;51.012;4.692;2023-02-15T06:34:11;47.53;;;23.65;;
27746;SDS011;15138;51.012;4.692;2023-02-15T06:36:39;48.10;;;23.75;;
27746;SDS011;15138;51.012;4.692;2023-02-15T06:39:07;48.05;;;24.27;;
27746;SDS011;15138;51.012;4.692;2023-02-15T06:41:35;51.70;;;27.70;;
27746;SDS011;15138;51.012;4.692;2023-02-15T06:44:04;48.60;;;24.95;;
27746;SDS011;15138;51.012;4.692;2023-02-15T06:46:32;43.50;;;22.27;;
27746;SDS011;15138;51.012;4.692;2023-02-15T06:49:00;45.45;;;24.58;;
27746;SDS011;15138;51.012;4.692;2023-02-15T06:51:30;47.60;;;24.90;;
27746;SDS011;15138;51.012;4.692;2023-02-15T06:54:00;45.83;;;23.30;;
27746;SDS011;15138;51.012;4.692;2023-02-15T06:56:29;43.47;;;22.17;;
27746;SDS011;15138;51.012;4.692;2023-02-15T06:58:57;46.10;;;24.90;;
27746;SDS011;15138;51.012;4.692;2023-02-15T07:01:25;44.72;;;23.98;;
27746;SDS011;15138;51.012;4.692;2023-02-15T07:03:53;47.28;;;25.23;;
27746;SDS011;15138;51.012;4.692;2023-02-15T07:06:22;45.63;;;24.85;;
27746;SDS011;15138;51.012;4.692;2023-02-15T07:08:52;44.20;;;23.00;;
27746;SDS011;15138;51.012;4.692;2023-02-15T07:11:20;42.47;;;22.38;;
27746;SDS011;15138;51.012;4.692;2023-02-15T07:14:06;42.13;;;23.63;;
27746;SDS011;15138;51.012;4.692;2023-02-15T07:16:34;54.85;;;27.45;;
27746;SDS011;15138;51.012;4.692;2023-02-15T07:19:02;61.58;;;30.88;;
27746;SDS011;15138;51.012;4.692;2023-02-15T07:21:30;52.08;;;26.67;;
27746;SDS011;15138;51.012;4.692;2023-02-15T07:24:00;46.55;;;24.23;;
27746;SDS011;15138;51.012;4.692;2023-02-15T07:26:29;44.30;;;22.75;;
27746;SDS011;15138;51.012;4.692;2023-02-15T07:28:59;52.08;;;26.40;;
27746;SDS011;15138;51.012;4.692;2023-02-15T07:31:28;51.13;;;27.20;;
27746;SDS011;15138;51.012;4.692;2023-02-15T07:33:56;52.92;;;28.40;;
27746;SDS011;15138;51.012;4.692;2023-02-15T07:36:25;58.75;;;29.63;;
27746;SDS011;15138;51.012;4.692;2023-02-15T07:38:53;60.22;;;30.20;;
27746;SDS011;15138;51.012;4.692;2023-02-15T07:41:23;61.60;;;30.40;;
27746;SDS011;15138;51.012;4.692;2023-02-15T07:43:51;55.00;;;28.35;;
27746;SDS011;15138;51.012;4.692;2023-02-15T07:46:21;62.17;;;29.73;;
27746;SDS011;15138;51.012;4.692;2023-02-15T07:48:50;60.33;;;31.90;;
27746;SDS011;15138;51.012;4.692;2023-02-15T07:51:18;54.83;;;28.00;;
27746;SDS011;15138;51.012;4.692;2023-02-15T07:53:47;57.55;;;29.00;;
27746;SDS011;15138;51.012;4.692;2023-02-15T07:56:17;50.08;;;27.38;;
27746;SDS011;15138;51.012;4.692;2023-02-15T07:58:47;55.80;;;30.55;;
27746;SDS011;15138;51.012;4.692;2023-02-15T08:01:18;58.80;;;30.35;;
27746;SDS011;15138;51.012;4.692;2023-02-15T08:03:48;61.03;;;30.98;;
27746;SDS011;15138;51.012;4.692;2023-02-15T08:06:16;60.08;;;32.75;;
27746;SDS011;15138;51.012;4.692;2023-02-15T08:08:45;65.22;;;33.80;;
27746;SDS011;15138;51.012;4.692;2023-02-15T08:11:15;80.00;;;41.03;;
27746;SDS011;15138;51.012;4.692;2023-02-15T08:14:00;66.65;;;33.95;;
27746;SDS011;15138;51.012;4.692;2023-02-15T08:16:31;60.13;;;32.80;;
27746;SDS011;15138;51.012;4.692;2023-02-15T08:19:02;62.28;;;32.10;;
27746;SDS011;15138;51.012;4.692;2023-02-15T08:21:32;62.15;;;31.50;;
27746;SDS011;15138;51.012;4.692;2023-02-15T08:24:01;60.50;;;31.63;;
27746;SDS011;15138;51.012;4.692;2023-02-15T08:26:33;63.42;;;31.35;;
27746;SDS011;15138;51.012;4.692;2023-02-15T08:29:04;64.60;;;31.95;;
27746;SDS011;15138;51.012;4.692;2023-02-15T08:31:35;65.88;;;33.50;;
27746;SDS011;15138;51.012;4.692;2023-02-15T08:34:04;64.32;;;33.92;;
27746;SDS011;15138;51.012;4.692;2023-02-15T08:36:33;68.13;;;36.13;;
27746;SDS011;15138;51.012;4.692;2023-02-15T08:39:03;66.47;;;34.50;;
27746;SDS011;15138;51.012;4.692;2023-02-15T08:41:34;72.95;;;35.50;;
27746;SDS011;15138;51.012;4.692;2023-02-15T08:44:05;70.93;;;35.63;;
27746;SDS011;15138;51.012;4.692;2023-02-15T08:46:35;74.60;;;37.38;;
27746;SDS011;15138;51.012;4.692;2023-02-15T08:49:05;69.95;;;35.30;;
27746;SDS011;15138;51.012;4.692;2023-02-15T08:51:34;68.57;;;36.25;;
27746;SDS011;15138;51.012;4.692;2023-02-15T08:54:05;67.93;;;35.38;;
27746;SDS011;15138;51.012;4.692;2023-02-15T08:56:36;70.40;;;36.97;;
27746;SDS011;15138;51.012;4.692;2023-02-15T08:59:11;70.95;;;37.70;;
27746;SDS011;15138;51.012;4.692;2023-02-15T09:01:41;66.95;;;33.38;;
27746;SDS011;15138;51.012;4.692;2023-02-15T09:04:11;67.45;;;36.15;;
27746;SDS011;15138;51.012;4.692;2023-02-15T09:06:39;67.32;;;36.38;;
27746;SDS011;15138;51.012;4.692;2023-02-15T09:09:13;77.80;;;37.85;;
27746;SDS011;15138;51.012;4.692;2023-02-15T09:11:42;73.90;;;37.40;;
27746;SDS011;15138;51.012;4.692;2023-02-15T09:14:14;64.97;;;35.40;;
27746;SDS011;15138;51.012;4.692;2023-02-15T09:16:44;69.35;;;34.60;;
27746;SDS011;15138;51.012;4.692;2023-02-15T09:19:15;63.53;;;32.88;;
27746;SDS011;15138;51.012;4.692;2023-02-15T09:21:44;64.75;;;33.40;;
27746;SDS011;15138;51.012;4.692;2023-02-15T09:24:17;69.45;;;34.38;;
27746;SDS011;15138;51.012;4.692;2023-02-15T09:26:48;73.05;;;35.08;;
27746;SDS011;15138;51.012;4.692;2023-02-15T09:29:21;59.80;;;30.63;;
27746;SDS011;15138;51.012;4.692;2023-02-15T09:31:50;55.90;;;28.25;;
27746;SDS011;15138;51.012;4.692;2023-02-15T09:34:20;54.67;;;29.30;;
27746;SDS011;15138;51.012;4.692;2023-02-15T09:36:49;56.47;;;28.00;;
27746;SDS011;15138;51.012;4.692;2023-02-15T09:39:19;61.00;;;30.10;;
27746;SDS011;15138;51.012;4.692;2023-02-15T09:41:57;57.55;;;28.60;;
27746;SDS011;15138;51.012;4.692;2023-02-15T09:47:52;53.03;;;28.40;;
27746;SDS011;15138;51.012;4.692;2023-02-15T09:50:27;53.35;;;27.58;;
27746;SDS011;15138;51.012;4.692;2023-02-15T09:53:15;51.42;;;25.15;;
27746;SDS011;15138;51.012;4.692;2023-02-15T09:55:50;54.65;;;26.30;;
27746;SDS011;15138;51.012;4.692;2023-02-15T09:58:21;51.92;;;26.85;;
27746;SDS011;15138;51.012;4.692;2023-02-15T10:00:58;50.55;;;25.65;;
27746;SDS011;15138;51.012;4.692;2023-02-15T10:03:40;51.58;;;24.13;;
27746;SDS011;15138;51.012;4.692;2023-02-15T10:06:32;52.22;;;26.88;;
27746;SDS011;15138;51.012;4.692;2023-02-15T10:09:17;50.72;;;24.45;;
27746;SDS011;15138;51.012;4.692;2023-02-15T10:12:01;50.42;;;24.83;;
27746;SDS011;15138;51.012;4.692;2023-02-15T10:14:55;49.92;;;25.35;;
27746;SDS011;15138;51.012;4.692;2023-02-15T10:17:41;45.45;;;23.35;;
27746;SDS011;15138;51.012;4.692;2023-02-15T10:20:27;45.67;;;23.17;;
27746;SDS011;15138;51.012;4.692;2023-02-15T10:23:09;44.80;;;22.23;;
27746;SDS011;15138;51.012;4.692;2023-02-15T10:25:49;50.22;;;23.20;;
27746;SDS011;15138;51.012;4.692;2023-02-15T10:28:20;44.33;;;22.73;;
27746;SDS011;15138;51.012;4.692;2023-02-15T10:30:54;47.40;;;22.17;;
27746;SDS011;15138;51.012;4.692;2023-02-15T10:33:36;52.35;;;24.20;;
27746;SDS011;15138;51.012;4.692;2023-02-15T10:36:11;43.15;;;22.45;;
27746;SDS011;15138;51.012;4.692;2023-02-15T10:38:52;46.57;;;23.00;;
27746;SDS011;15138;51.012;4.692;2023-02-15T10:41:32;43.92;;;21.88;;
27746;SDS011;15138;51.012;4.692;2023-02-15T10:44:19;40.22;;;20.30;;
27746;SDS011;15138;51.012;4.692;2023-02-15T10:47:06;47.80;;;21.70;;
27746;SDS011;15138;51.012;4.692;2023-02-15T10:50:01;44.13;;;19.77;;
27746;SDS011;15138;51.012;4.692;2023-02-15T10:52:47;42.70;;;22.00;;
27746;SDS011;15138;51.012;4.692;2023-02-15T10:55:27;46.08;;;22.52;;
27746;SDS011;15138;51.012;4.692;2023-02-15T10:58:12;44.28;;;21.98;;
27746;SDS011;15138;51.012;4.692;2023-02-15T11:00:43;42.63;;;22.95;;
27746;SDS011;15138;51.012;4.692;2023-02-15T11:03:18;44.38;;;21.98;;
27746;SDS011;15138;51.012;4.692;2023-02-15T11:05:52;49.92;;;23.90;;
27746;SDS011;15138;51.012;4.692;2023-02-15T11:08:26;51.97;;;26.25;;
27746;SDS011;15138;51.012;4.692;2023-02-15T11:10:59;46.17;;;22.38;;
27746;SDS011;15138;51.012;4.692;2023-02-15T11:13:33;46.35;;;22.90;;
27746;SDS011;15138;51.012;4.692;2023-02-15T11:16:03;46.95;;;23.27;;
27746;SDS011;15138;51.012;4.692;2023-02-15T11:18:36;46.92;;;23.63;;
27746;SDS011;15138;51.012;4.692;2023-02-15T11:21:07;44.75;;;22.35;;
27746;SDS011;15138;51.012;4.692;2023-02-15T11:23:41;50.28;;;23.48;;
27746;SDS011;15138;51.012;4.692;2023-02-15T11:26:14;45.22;;;22.15;;
27746;SDS011;15138;51.012;4.692;2023-02-15T11:28:45;45.42;;;21.77;;
27746;SDS011;15138;51.012;4.692;2023-02-15T11:31:16;46.35;;;22.23;;
27746;SDS011;15138;51.012;4.692;2023-02-15T11:33:46;44.72;;;21.35;;
27746;SDS011;15138;51.012;4.692;2023-02-15T11:36:16;43.38;;;21.65;;
27746;SDS011;15138;51.012;4.692;2023-02-15T11:38:49;43.72;;;22.20;;
27746;SDS011;15138;51.012;4.692;2023-02-15T11:41:21;46.28;;;24.40;;
27746;SDS011;15138;51.012;4.692;2023-02-15T11:43:54;45.20;;;21.85;;
27746;SDS011;15138;51.012;4.692;2023-02-15T11:46:27;47.75;;;21.98;;
27746;SDS011;15138;51.012;4.692;2023-02-15T11:48:56;47.33;;;23.05;;
27746;SDS011;15138;51.012;4.692;2023-02-15T11:51:25;45.15;;;21.75;;
27746;SDS011;15138;51.012;4.692;2023-02-15T11:53:56;41.88;;;21.42;;
27746;SDS011;15138;51.012;4.692;2023-02-15T11:56:25;42.00;;;20.20;;
27746;SDS011;15138;51.012;4.692;2023-02-15T11:58:54;42.40;;;22.50;;
27746;SDS011;15138;51.012;4.692;2023-02-15T12:01:28;45.20;;;20.63;;
27746;SDS011;15138;51.012;4.692;2023-02-15T12:03:59;44.38;;;21.52;;
27746;SDS011;15138;51.012;4.692;2023-02-15T12:06:32;43.90;;;21.65;;
27746;SDS011;15138;51.012;4.692;2023-02-15T12:09:05;47.03;;;21.15;;
27746;SDS011;15138;51.012;4.692;2023-02-15T12:11:51;39.00;;;20.73;;
27746;SDS011;15138;51.012;4.692;2023-02-15T12:14:20;49.53;;;22.50;;
27746;SDS011;15138;51.012;4.692;2023-02-15T12:16:48;40.15;;;19.95;;
27746;SDS011;15138;51.012;4.692;2023-02-15T12:19:24;48.65;;;22.67;;
27746;SDS011;15138;51.012;4.692;2023-02-15T12:22:00;47.58;;;23.85;;
27746;SDS011;15138;51.012;4.692;2023-02-15T12:24:32;49.63;;;23.15;;
27746;SDS011;15138;51.012;4.692;2023-02-15T12:27:05;45.80;;;21.75;;
27746;SDS011;15138;51.012;4.692;2023-02-15T12:29:41;50.15;;;24.17;;
27746;SDS011;15138;51.012;4.692;2023-02-15T12:32:15;49.25;;;22.08;;
27746;SDS011;15138;51.012;4.692;2023-02-15T12:34:46;47.58;;;24.67;;
27746;SDS011;15138;51.012;4.692;2023-02-15T12:37:16;45.70;;;21.55;;
27746;SDS011;15138;51.012;4.692;2023-02-15T12:39:52;46.42;;;22.17;;
27746;SDS011;15138;51.012;4.692;2023-02-15T12:42:23;44.05;;;19.58;;
27746;SDS011;15138;51.012;4.692;2023-02-15T12:44:54;43.10;;;20.23;;
27746;SDS011;15138;51.012;4.692;2023-02-15T12:47:24;43.60;;;21.23;;
27746;SDS011;15138;51.012;4.692;2023-02-15T12:50:06;45.15;;;21.25;;
27746;SDS011;15138;51.012;4.692;2023-02-15T12:52:44;45.97;;;21.65;;
27746;SDS011;15138;51.012;4.692;2023-02-15T12:55:25;42.00;;;20.88;;
27746;SDS011;15138;51.012;4.692;2023-02-15T12:58:06;46.05;;;22.77;;
27746;SDS011;15138;51.012;4.692;2023-02-15T13:00:35;43.35;;;21.40;;
27746;SDS011;15138;51.012;4.692;2023-02-15T13:03:03;44.08;;;21.42;;
27746;SDS011;15138;51.012;4.692;2023-02-15T13:05:33;42.78;;;20.80;;
27746;SDS011;15138;51.012;4.692;2023-02-15T13:08:03;44.33;;;20.92;;
27746;SDS011;15138;51.012;4.692;2023-02-15T13:10:39;54.55;;;25.00;;
27746;SDS011;15138;51.012;4.692;2023-02-15T13:13:10;44.33;;;22.00;;
27746;SDS011;15138;51.012;4.692;2023-02-15T13:15:41;45.22;;;21.23;;
27746;SDS011;15138;51.012;4.692;2023-02-15T13:18:16;42.80;;;23.80;;
27746;SDS011;15138;51.012;4.692;2023-02-15T13:20:47;51.30;;;25.40;;
27746;SDS011;15138;51.012;4.692;2023-02-15T13:23:21;52.17;;;22.98;;
27746;SDS011;15138;51.012;4.692;2023-02-15T13:25:57;50.22;;;22.80;;
27746;SDS011;15138;51.012;4.692;2023-02-15T13:28:32;46.70;;;22.95;;
27746;SDS011;15138;51.012;4.692;2023-02-15T13:31:11;49.90;;;23.80;;
27746;SDS011;15138;51.012;4.692;2023-02-15T13:33:42;46.22;;;21.80;;
27746;SDS011;15138;51.012;4.692;2023-02-15T13:36:15;46.03;;;24.00;;
27746;SDS011;15138;51.012;4.692;2023-02-15T13:38:51;41.70;;;23.25;;
27746;SDS011;15138;51.012;4.692;2023-02-15T13:41:31;42.28;;;19.98;;
27746;SDS011;15138;51.012;4.692;2023-02-15T13:44:08;47.67;;;21.83;;
27746;SDS011;15138;51.012;4.692;2023-02-15T13:46:45;42.35;;;22.70;;
27746;SDS011;15138;51.012;4.692;2023-02-15T13:49:29;46.20;;;22.65;;
27746;SDS011;15138;51.012;4.692;2023-02-15T13:52:11;44.40;;;23.48;;
27746;SDS011;15138;51.012;4.692;2023-02-15T13:54:53;50.47;;;22.35;;
27746;SDS011;15138;51.012;4.692;2023-02-15T13:57:44;42.08;;;22.52;;
27746;SDS011;15138;51.012;4.692;2023-02-15T14:00:30;42.58;;;21.90;;
27746;SDS011;15138;51.012;4.692;2023-02-15T14:06:14;48.17;;;24.00;;
27746;SDS011;15138;51.012;4.692;2023-02-15T14:09:09;46.13;;;22.33;;
27746;SDS011;15138;51.012;4.692;2023-02-15T14:11:47;48.95;;;21.83;;
27746;SDS011;15138;51.012;4.692;2023-02-15T14:14:38;36.88;;;18.90;;
27746;SDS011;15138;51.012;4.692;2023-02-15T14:17:27;56.22;;;25.45;;
27746;SDS011;15138;51.012;4.692;2023-02-15T14:20:08;46.53;;;23.08;;
27746;SDS011;15138;51.012;4.692;2023-02-15T14:22:48;50.58;;;22.83;;
27746;SDS011;15138;51.012;4.692;2023-02-15T14:25:24;45.88;;;21.30;;
27746;SDS011;15138;51.012;4.692;2023-02-15T14:27:58;42.83;;;21.73;;
27746;SDS011;15138;51.012;4.692;2023-02-15T14:30:34;44.80;;;22.63;;
27746;SDS011;15138;51.012;4.692;2023-02-15T14:33:05;46.83;;;23.10;;
27746;SDS011;15138;51.012;4.692;2023-02-15T14:35:35;51.08;;;23.77;;
27746;SDS011;15138;51.012;4.692;2023-02-15T14:38:06;38.15;;;21.25;;
27746;SDS011;15138;51.012;4.692;2023-02-15T14:40:45;42.55;;;22.38;;
27746;SDS011;15138;51.012;4.692;2023-02-15T14:43:38;43.17;;;21.98;;
27746;SDS011;15138;51.012;4.692;2023-02-15T14:48:49;47.92;;;21.95;;
27746;SDS011;15138;51.012;4.692;2023-02-15T14:57:27;47.85;;;22.50;;
27746;SDS011;15138;51.012;4.692;2023-02-15T15:00:03;49.45;;;22.45;;
27746;SDS011;15138;51.012;4.692;2023-02-15T15:03:19;43.97;;;22.10;;
27746;SDS011;15138;51.012;4.692;2023-02-15T15:05:51;51.22;;;26.60;;
27746;SDS011;15138;51.012;4.692;2023-02-15T15:08:22;49.25;;;24.25;;
27746;SDS011;15138;51.012;4.692;2023-02-15T15:14:09;48.78;;;24.58;;
27746;SDS011;15138;51.012;4.692;2023-02-15T15:16:49;52.05;;;25.15;;